createdAt,value
2023-06-11T00:01:10.869Z,101276.62
2023-06-11T00:03:38.862Z,101284.50
2023-06-11T00:06:07.520Z,101284.56
2023-06-11T00:08:35.692Z,101281.33
2023-06-11T00:11:03.619Z,101283.03
2023-06-11T00:13:31.552Z,101275.73
2023-06-11T00:15:59.484Z,101286.04
2023-06-11T00:18:27.664Z,101291.10
2023-06-11T00:20:55.738Z,101274.95
2023-06-11T00:23:23.617Z,101282.67
2023-06-11T00:25:52.565Z,101283.65
2023-06-11T00:28:21.153Z,101280.31
2023-06-11T00:30:49.066Z,101273.02
2023-06-11T00:33:17.115Z,101287.67
2023-06-11T00:35:45.080Z,101281.85
2023-06-11T00:38:13.598Z,101279.40
2023-06-11T00:40:41.581Z,101279.40
2023-06-11T00:43:10.010Z,101286.33
2023-06-11T00:45:39.585Z,101286.56
2023-06-11T00:48:08.465Z,101289.05
2023-06-11T00:50:47.544Z,101287.31
2023-06-11T00:53:16.210Z,101288.85
2023-06-11T00:55:44.180Z,101281.79
2023-06-11T00:58:19.736Z,101289.41
2023-06-11T01:00:51.540Z,101289.63
2023-06-11T01:03:29.243Z,101288.75
2023-06-11T01:06:06.685Z,101287.18
2023-06-11T01:08:41.415Z,101288.62
2023-06-11T01:11:16.247Z,101295.88
2023-06-11T01:13:44.363Z,101282.87
2023-06-11T01:16:17.721Z,101287.87
2023-06-11T01:19:00.570Z,101279.23
2023-06-11T01:21:35.539Z,101293.55
2023-06-11T01:24:42.771Z,101280.05
2023-06-11T01:27:21.114Z,101280.97
2023-06-11T01:29:51.809Z,101284.20
2023-06-11T01:32:26.176Z,101288.20
2023-06-11T01:35:05.241Z,101290.87
2023-06-11T01:37:35.321Z,101290.87
2023-06-11T01:40:03.217Z,101288.75
2023-06-11T01:42:31.094Z,101297.48
2023-06-11T01:44:58.928Z,101292.45
2023-06-11T01:47:26.958Z,101303.23
2023-06-11T01:49:54.929Z,101304.19
2023-06-11T01:52:22.913Z,101307.26
2023-06-11T01:54:50.852Z,101302.23
2023-06-11T01:57:18.806Z,101302.06
2023-06-11T01:59:46.884Z,101309.58
2023-06-11T02:02:15.030Z,101297.16
2023-06-11T02:04:42.970Z,101308.47
2023-06-11T02:07:10.933Z,101301.90
2023-06-11T02:09:38.862Z,101300.95
2023-06-11T02:12:08.422Z,101302.68
2023-06-11T02:14:36.406Z,101304.22
2023-06-11T02:17:04.448Z,101312.46
2023-06-11T02:19:32.366Z,101302.55
2023-06-11T02:22:00.276Z,101301.30
2023-06-11T02:24:28.736Z,101306.41
2023-06-11T02:26:56.798Z,101295.16
2023-06-11T02:29:24.848Z,101309.45
2023-06-11T02:31:52.770Z,101306.70
2023-06-11T02:34:20.728Z,101305.59
2023-06-11T02:36:48.684Z,101307.75
2023-06-11T02:39:17.198Z,101306.44
2023-06-11T02:41:45.093Z,101304.87
2023-06-11T02:44:12.995Z,101306.70
2023-06-11T02:46:41.019Z,101306.18
2023-06-11T02:49:09.056Z,101303.79
2023-06-11T02:51:37.077Z,101303.63
2023-06-11T02:54:06.439Z,101308.70
2023-06-11T02:56:34.429Z,101307.06
2023-06-11T02:59:02.409Z,101308.01
2023-06-11T03:01:30.648Z,101312.66
2023-06-11T03:03:58.537Z,101311.45
2023-06-11T03:06:26.695Z,101310.63
2023-06-11T03:08:55.724Z,101301.24
2023-06-11T03:11:23.728Z,101315.59
2023-06-11T03:13:51.625Z,101311.18
2023-06-11T03:16:19.584Z,101314.48
2023-06-11T03:18:48.590Z,101315.83
2023-06-11T03:21:16.685Z,101327.04
2023-06-11T03:23:44.692Z,101324.46
2023-06-11T03:26:12.646Z,101327.70
2023-06-11T03:28:40.635Z,101330.12
2023-06-11T03:31:08.792Z,101325.05
2023-06-11T03:33:36.987Z,101331.95
2023-06-11T03:36:05.013Z,101333.65
2023-06-11T03:38:33.080Z,101331.09
2023-06-11T03:41:01.123Z,101328.77
2023-06-11T03:43:29.134Z,101325.67
2023-06-11T03:45:57.117Z,101336.52
2023-06-11T03:48:25.001Z,101340.81
2023-06-11T03:50:52.957Z,101335.61
2023-06-11T03:53:20.930Z,101333.81
2023-06-11T03:55:48.870Z,101338.91
2023-06-11T03:58:16.849Z,101346.89
2023-06-11T04:00:44.770Z,101346.95
2023-06-11T04:03:12.876Z,101347.25
2023-06-11T04:05:40.917Z,101348.85
2023-06-11T04:08:09.038Z,101339.44
2023-06-11T04:10:37.106Z,101341.30
2023-06-11T04:13:05.145Z,101338.91
2023-06-11T04:15:34.582Z,101350.52
2023-06-11T04:18:02.518Z,101348.92
2023-06-11T04:20:30.534Z,101347.35
2023-06-11T04:22:59.771Z,101346.07
2023-06-11T04:25:27.866Z,101348.43
2023-06-11T04:27:55.767Z,101339.99
2023-06-11T04:30:23.787Z,101338.65
2023-06-11T04:32:57.181Z,101351.57
2023-06-11T04:35:28.572Z,101348.36
2023-06-11T04:37:58.210Z,101347.80
2023-06-11T04:40:26.501Z,101355.69
2023-06-11T04:42:54.493Z,101348.27
2023-06-11T04:45:22.940Z,101357.12
2023-06-11T04:47:52.643Z,101351.34
2023-06-11T04:50:23.766Z,101355.23
2023-06-11T04:52:54.932Z,101360.76
2023-06-11T04:55:26.926Z,101357.48
2023-06-11T04:57:56.729Z,101360.49
2023-06-11T05:00:24.819Z,101357.26
2023-06-11T05:02:54.335Z,101351.77
2023-06-11T05:05:22.328Z,101354.55
2023-06-11T05:07:50.308Z,101354.77
2023-06-11T05:10:20.220Z,101366.74
2023-06-11T05:12:48.185Z,101360.98
2023-06-11T05:15:16.208Z,101364.98
2023-06-11T05:17:44.178Z,101367.13
2023-06-11T05:20:13.259Z,101362.20
2023-06-11T05:22:41.980Z,101368.31
2023-06-11T05:25:11.227Z,101369.29
2023-06-11T05:27:39.513Z,101371.38
2023-06-11T05:30:08.228Z,101368.48
2023-06-11T05:32:36.213Z,101371.38
2023-06-11T05:35:06.257Z,101371.81
2023-06-11T05:37:34.242Z,101367.46
2023-06-11T05:40:02.274Z,101371.61
2023-06-11T05:42:30.241Z,101375.47
2023-06-11T05:44:58.254Z,101382.41
2023-06-11T05:47:26.209Z,101377.59
2023-06-11T05:49:54.259Z,101388.20
2023-06-11T05:52:22.418Z,101384.53
2023-06-11T05:54:50.552Z,101382.30
2023-06-11T05:57:23.055Z,101380.34
2023-06-11T05:59:51.602Z,101388.32
2023-06-11T06:02:20.352Z,101375.44
2023-06-11T06:04:50.271Z,101382.93
2023-06-11T06:07:18.825Z,101379.23
2023-06-11T06:09:46.990Z,101378.91
2023-06-11T06:12:14.935Z,101387.96
2023-06-11T06:14:42.901Z,101384.53
2023-06-11T06:17:10.790Z,101387.80
2023-06-11T06:19:38.703Z,101391.59
2023-06-11T06:22:07.054Z,101387.31
2023-06-11T06:24:35.085Z,101390.55
2023-06-11T06:27:03.198Z,101390.12
2023-06-11T06:29:31.152Z,101386.66
2023-06-11T06:31:59.079Z,101388.88
2023-06-11T06:34:28.473Z,101396.63
2023-06-11T06:36:56.455Z,101389.53
2023-06-11T06:39:24.408Z,101395.42
2023-06-11T06:41:52.387Z,101406.05
2023-06-11T06:44:20.344Z,101399.64
2023-06-11T06:46:48.347Z,101398.49
2023-06-11T06:49:16.238Z,101398.85
2023-06-11T06:51:44.214Z,101405.78
2023-06-11T06:54:12.172Z,101412.36
2023-06-11T06:56:40.111Z,101404.45
2023-06-11T06:59:08.824Z,101408.01
2023-06-11T07:01:37.146Z,101400.62
2023-06-11T07:04:05.244Z,101402.38
2023-06-11T07:06:33.420Z,101406.21
2023-06-11T07:09:01.410Z,101404.87
2023-06-11T07:11:29.391Z,101407.55
2023-06-11T07:13:57.655Z,101397.12
2023-06-11T07:16:25.645Z,101412.39
2023-06-11T07:18:53.820Z,101417.79
2023-06-11T07:21:21.852Z,101412.06
2023-06-11T07:23:49.892Z,101413.11
2023-06-11T07:26:18.206Z,101413.86
2023-06-11T07:28:46.421Z,101407.09
2023-06-11T07:31:15.271Z,101406.02
2023-06-11T07:33:45.183Z,101407.26
2023-06-11T07:36:13.199Z,101409.48
2023-06-11T07:38:41.263Z,101416.02
2023-06-11T07:41:09.279Z,101411.96
2023-06-11T07:43:37.169Z,101417.69
2023-06-11T07:46:06.019Z,101418.38
2023-06-11T07:48:34.169Z,101412.00
2023-06-11T07:51:02.104Z,101425.14
2023-06-11T07:53:30.989Z,101427.95
2023-06-11T07:55:59.428Z,101422.56
2023-06-11T07:58:27.511Z,101419.55
2023-06-11T08:00:55.569Z,101426.38
2023-06-11T08:03:23.910Z,101420.23
2023-06-11T08:05:53.167Z,101422.23
2023-06-11T08:08:21.156Z,101418.44
2023-06-11T08:10:52.986Z,101424.69
2023-06-11T08:13:21.014Z,101419.87
2023-06-11T08:15:48.978Z,101416.97
2023-06-11T08:18:19.603Z,101421.45
2023-06-11T08:20:47.907Z,101416.61
2023-06-11T08:23:15.930Z,101416.87
2023-06-11T08:25:44.248Z,101421.09
2023-06-11T08:28:12.265Z,101411.70
2023-06-11T08:30:40.239Z,101415.63
2023-06-11T08:33:08.287Z,101412.23
2023-06-11T08:35:36.322Z,101417.39
2023-06-11T08:38:04.202Z,101408.53
2023-06-11T08:40:32.744Z,101412.33
2023-06-11T08:43:00.808Z,101410.10
2023-06-11T08:45:28.809Z,101405.26
2023-06-11T08:47:59.315Z,101409.38
2023-06-11T08:50:27.989Z,101407.13
2023-06-11T08:52:55.943Z,101412.88
2023-06-11T08:55:24.053Z,101407.81
2023-06-11T08:57:53.179Z,101400.29
2023-06-11T09:00:21.693Z,101407.32
2023-06-11T09:02:49.978Z,101393.98
2023-06-11T09:05:18.172Z,101394.41
2023-06-11T09:07:55.956Z,101400.32
2023-06-11T09:10:23.929Z,101396.47
2023-06-11T09:12:53.153Z,101399.84
2023-06-11T09:15:22.943Z,101395.42
2023-06-11T09:17:51.042Z,101392.57
2023-06-11T09:20:19.183Z,101386.03
2023-06-11T09:22:48.097Z,101401.27
2023-06-11T09:25:20.566Z,101394.70
2023-06-11T09:27:50.151Z,101395.38
2023-06-11T09:30:20.432Z,101396.20
2023-06-11T09:32:51.118Z,101391.01
2023-06-11T09:35:22.145Z,101387.38
2023-06-11T09:37:53.231Z,101389.14
2023-06-11T09:40:25.664Z,101386.63
2023-06-11T09:42:53.630Z,101385.91
2023-06-11T09:45:23.325Z,101388.68
2023-06-11T09:47:53.510Z,101388.95
2023-06-11T09:50:22.468Z,101386.63
2023-06-11T09:52:52.541Z,101387.24
2023-06-11T09:55:20.854Z,101385.12
2023-06-11T09:57:49.504Z,101385.77
2023-06-11T10:00:18.039Z,101389.34
2023-06-11T10:02:46.846Z,101381.75
2023-06-11T10:05:15.462Z,101391.73
2023-06-11T10:08:18.534Z,101386.46
2023-06-11T10:10:49.910Z,101384.17
2023-06-11T10:13:31.746Z,101376.75
2023-06-11T10:16:04.890Z,101378.16
2023-06-11T10:18:33.044Z,101385.18
2023-06-11T10:21:03.565Z,101380.70
2023-06-11T10:23:41.079Z,101381.88
2023-06-11T10:26:11.981Z,101380.51
2023-06-11T10:28:44.461Z,101369.59
2023-06-11T10:31:12.482Z,101381.88
2023-06-11T10:33:47.497Z,101376.65
2023-06-11T10:36:28.252Z,101379.16
2023-06-11T10:39:26.096Z,101379.82
2023-06-11T10:42:02.306Z,101370.83
2023-06-11T10:44:34.125Z,101373.38
2023-06-11T10:47:02.986Z,101369.45
2023-06-11T10:49:31.241Z,101379.04
2023-06-11T10:52:03.417Z,101368.70
2023-06-11T10:54:37.854Z,101367.76
2023-06-11T10:57:06.756Z,101367.72
2023-06-11T10:59:34.741Z,101370.47
2023-06-11T11:02:02.921Z,101366.55
2023-06-11T11:04:30.941Z,101362.85
2023-06-11T11:07:10.675Z,101363.44
2023-06-11T11:09:38.741Z,101349.34
2023-06-11T11:12:08.156Z,101349.77
2023-06-11T11:14:36.572Z,101343.69
2023-06-11T11:17:05.092Z,101347.97
2023-06-11T11:19:33.399Z,101345.03
2023-06-11T11:22:01.422Z,101341.07
2023-06-11T11:24:32.001Z,101344.96
2023-06-11T11:27:00.085Z,101336.91
2023-06-11T11:29:28.171Z,101342.58
2023-06-11T11:31:56.378Z,101335.12
2023-06-11T11:34:24.874Z,101335.09
2023-06-11T11:36:53.131Z,101338.59
2023-06-11T11:39:21.251Z,101331.75
2023-06-11T11:41:51.040Z,101325.63
2023-06-11T11:44:19.753Z,101338.88
2023-06-11T11:46:47.890Z,101320.70
2023-06-11T11:49:15.901Z,101321.84
2023-06-11T11:51:48.094Z,101315.50
2023-06-11T11:54:17.257Z,101312.91
2023-06-11T11:56:45.341Z,101319.13
2023-06-11T11:59:22.606Z,101303.47
2023-06-11T12:02:01.687Z,101304.02
2023-06-11T12:04:38.315Z,101307.13
2023-06-11T12:07:17.343Z,101307.88
2023-06-11T12:09:45.327Z,101295.88
2023-06-11T12:12:13.406Z,101293.95
2023-06-11T12:14:41.556Z,101299.05
2023-06-11T12:17:12.719Z,101294.67
2023-06-11T12:19:40.790Z,101290.68
2023-06-11T12:22:08.951Z,101295.39
2023-06-11T12:24:38.778Z,101294.34
2023-06-11T12:27:11.164Z,101281.98
2023-06-11T12:29:40.474Z,101280.77
2023-06-11T12:32:15.476Z,101280.34
2023-06-11T12:34:43.575Z,101274.82
2023-06-11T12:37:12.710Z,101274.76
2023-06-11T12:39:45.664Z,101278.22
2023-06-11T12:42:13.757Z,101278.22
2023-06-11T12:44:43.901Z,101267.40
2023-06-11T12:47:12.363Z,101269.13
2023-06-11T12:49:40.445Z,101263.24
2023-06-11T12:52:10.992Z,101270.51
2023-06-11T12:54:39.115Z,101268.18
2023-06-11T12:57:07.511Z,101265.60
2023-06-11T12:59:35.627Z,101252.95
2023-06-11T13:02:03.580Z,101255.07
2023-06-11T13:04:31.572Z,101252.48
2023-06-11T13:06:59.813Z,101261.48
2023-06-11T13:09:27.972Z,101255.33
2023-06-11T13:11:56.013Z,101255.04
2023-06-11T13:14:24.003Z,101253.50
2023-06-11T13:16:53.898Z,101252.09
2023-06-11T13:19:21.875Z,101250.88
2023-06-11T13:21:50.181Z,101244.84
2023-06-11T13:24:18.364Z,101247.94
2023-06-11T13:26:46.995Z,101244.67
2023-06-11T13:29:14.986Z,101244.67
2023-06-11T13:31:42.982Z,101242.32
2023-06-11T13:34:11.009Z,101237.25
2023-06-11T13:36:38.996Z,101238.62
2023-06-11T13:39:06.887Z,101238.62
2023-06-11T13:41:35.343Z,101244.15
2023-06-11T13:44:04.628Z,101237.67
2023-06-11T13:46:34.018Z,101228.84
2023-06-11T13:49:02.001Z,101220.96
2023-06-11T13:51:33.200Z,101227.18
2023-06-11T13:54:01.471Z,101219.33
2023-06-11T13:56:30.072Z,101228.45
2023-06-11T13:58:58.168Z,101216.09
2023-06-11T14:01:26.310Z,101221.55
2023-06-11T14:03:54.573Z,101211.94
2023-06-11T14:06:22.773Z,101207.75
2023-06-11T14:08:50.845Z,101217.37
2023-06-11T14:11:19.564Z,101217.37
2023-06-11T14:13:47.542Z,101227.14
2023-06-11T14:16:15.629Z,101217.53
2023-06-11T14:18:43.624Z,101215.53
2023-06-11T14:21:11.545Z,101212.88
2023-06-11T14:23:39.568Z,101208.38
2023-06-11T14:26:07.551Z,101200.00
2023-06-11T14:28:35.571Z,101213.31
2023-06-11T14:31:07.190Z,101200.00
2023-06-11T14:33:35.207Z,101203.53
2023-06-11T14:36:07.366Z,101203.27
2023-06-11T14:38:35.553Z,101196.77
2023-06-11T14:41:03.622Z,101201.44
2023-06-11T14:43:31.620Z,101198.66
2023-06-11T14:45:59.822Z,101202.09
2023-06-11T14:48:27.753Z,101197.48
2023-06-11T14:50:57.182Z,101193.66
2023-06-11T14:53:25.127Z,101193.89
2023-06-11T14:55:53.165Z,101195.33
2023-06-11T14:58:21.192Z,101193.49
2023-06-11T15:00:49.139Z,101194.09
2023-06-11T15:03:18.223Z,101192.71
2023-06-11T15:05:47.270Z,101190.26
2023-06-11T15:08:15.917Z,101192.25
2023-06-11T15:10:43.865Z,101200.03
2023-06-11T15:13:11.930Z,101199.25
2023-06-11T15:15:39.878Z,101186.86
2023-06-11T15:18:09.893Z,101187.02
2023-06-11T15:20:37.818Z,101189.08
2023-06-11T15:23:07.631Z,101186.43
2023-06-11T15:25:37.627Z,101189.54
2023-06-11T15:28:05.904Z,101189.84
2023-06-11T15:30:33.934Z,101186.14
2023-06-11T15:33:02.009Z,101188.43
2023-06-11T15:35:30.010Z,101196.34
2023-06-11T15:37:58.270Z,101189.84
2023-06-11T15:40:26.255Z,101190.91
2023-06-11T15:42:54.312Z,101187.51
2023-06-11T15:45:22.472Z,101186.14
2023-06-11T15:47:50.490Z,101190.06
2023-06-11T15:50:18.534Z,101187.12
2023-06-11T15:52:47.022Z,101188.03
2023-06-11T15:55:15.244Z,101195.33
2023-06-11T15:57:43.861Z,101192.55
2023-06-11T16:00:12.609Z,101199.38
2023-06-11T16:02:40.896Z,101190.20
2023-06-11T16:05:09.524Z,101194.80
2023-06-11T16:07:37.731Z,101190.32
2023-06-11T16:10:06.052Z,101190.06
2023-06-11T16:12:33.940Z,101193.49
2023-06-11T16:15:01.915Z,101191.77
2023-06-11T16:17:29.956Z,101199.19
2023-06-11T16:19:58.859Z,101190.98
2023-06-11T16:22:27.035Z,101194.54
2023-06-11T16:24:55.011Z,101192.22
2023-06-11T16:27:22.995Z,101193.85
2023-06-11T16:29:50.986Z,101199.91
2023-06-11T16:32:20.018Z,101193.59
2023-06-11T16:34:48.074Z,101202.42
2023-06-11T16:37:16.027Z,101186.76
2023-06-11T16:39:43.948Z,101194.02
2023-06-11T16:42:13.091Z,101191.73
2023-06-11T16:44:41.087Z,101191.08
2023-06-11T16:47:09.185Z,101191.53
2023-06-11T16:49:37.185Z,101194.15
2023-06-11T16:52:06.079Z,101191.04
2023-06-11T16:54:34.047Z,101194.28
2023-06-11T16:57:02.529Z,101188.85
2023-06-11T16:59:30.467Z,101179.08
2023-06-11T17:01:58.454Z,101179.70
2023-06-11T17:04:26.314Z,101182.48
2023-06-11T17:06:54.355Z,101175.64
2023-06-11T17:09:23.446Z,101179.66
2023-06-11T17:11:51.437Z,101176.55
2023-06-11T17:14:19.573Z,101175.45
2023-06-11T17:16:47.600Z,101166.13
2023-06-11T17:19:15.733Z,101172.47
2023-06-11T17:21:43.854Z,101168.38
2023-06-11T17:24:12.586Z,101173.94
2023-06-11T17:26:43.694Z,101177.34
2023-06-11T17:29:12.385Z,101176.23
2023-06-11T17:31:40.354Z,101166.65
2023-06-11T17:34:08.583Z,101169.23
2023-06-11T17:36:36.657Z,101171.26
2023-06-11T17:39:04.675Z,101173.52
2023-06-11T17:41:32.706Z,101169.92
2023-06-11T17:44:00.863Z,101182.37
2023-06-11T17:46:28.936Z,101175.67
2023-06-11T17:48:56.976Z,101179.89
2023-06-11T17:51:24.884Z,101182.41
2023-06-11T17:53:52.945Z,101181.56
2023-06-11T17:56:20.967Z,101178.98
2023-06-11T17:58:48.992Z,101192.45
2023-06-11T18:01:17.169Z,101193.73
2023-06-11T18:03:45.314Z,101189.90
2023-06-11T18:06:14.051Z,101185.45
2023-06-11T18:08:43.515Z,101183.26
2023-06-11T18:11:11.736Z,101191.34
2023-06-11T18:13:39.710Z,101194.34
2023-06-11T18:16:07.721Z,101198.53
2023-06-11T18:18:35.692Z,101194.05
2023-06-11T18:21:03.618Z,101198.59
2023-06-11T18:23:31.604Z,101195.55
2023-06-11T18:25:59.727Z,101198.53
2023-06-11T18:28:28.047Z,101199.74
2023-06-11T18:30:56.264Z,101194.51
2023-06-11T18:33:24.384Z,101190.84
2023-06-11T18:35:52.897Z,101191.50
2023-06-11T18:38:21.020Z,101198.30
2023-06-11T18:40:49.000Z,101197.95
2023-06-11T18:43:17.015Z,101201.67
2023-06-11T18:45:45.039Z,101195.66
2023-06-11T18:48:13.144Z,101204.65
2023-06-11T18:50:41.196Z,101204.09
2023-06-11T18:53:09.645Z,101210.92
2023-06-11T18:55:37.829Z,101214.45
2023-06-11T18:58:07.719Z,101219.72
2023-06-11T19:00:38.235Z,101217.01
2023-06-11T19:03:06.357Z,101218.58
2023-06-11T19:05:34.430Z,101226.75
2023-06-11T19:08:02.479Z,101232.80
2023-06-11T19:10:30.480Z,101237.28
2023-06-11T19:12:58.690Z,101236.70
2023-06-11T19:15:26.737Z,101249.38
2023-06-11T19:17:54.678Z,101249.58
2023-06-11T19:20:22.762Z,101248.40
2023-06-11T19:22:50.753Z,101247.78
2023-06-11T19:25:18.715Z,101247.02
2023-06-11T19:27:46.725Z,101256.15
2023-06-11T19:30:16.358Z,101257.72
2023-06-11T19:32:44.393Z,101266.88
2023-06-11T19:35:12.475Z,101264.09
2023-06-11T19:37:40.444Z,101268.73
2023-06-11T19:40:09.876Z,101262.30
2023-06-11T19:42:38.279Z,101269.30
2023-06-11T19:45:07.987Z,101264.98
2023-06-11T19:47:36.512Z,101272.56
2023-06-11T19:50:07.944Z,101271.39
2023-06-11T19:52:36.529Z,101279.76
2023-06-11T19:55:04.802Z,101274.07
2023-06-11T19:57:32.759Z,101269.16
2023-06-11T20:00:01.880Z,101275.38
2023-06-11T20:02:29.856Z,101281.59
2023-06-11T20:04:58.231Z,101283.91
2023-06-11T20:07:26.437Z,101278.22
2023-06-11T20:09:54.476Z,101281.30
2023-06-11T20:12:22.410Z,101280.87
2023-06-11T20:14:50.411Z,101284.11
2023-06-11T20:17:18.328Z,101285.09
2023-06-11T20:19:46.470Z,101284.66
2023-06-11T20:22:14.486Z,101281.91
2023-06-11T20:24:42.550Z,101290.22
2023-06-11T20:27:10.486Z,101281.82
2023-06-11T20:29:38.583Z,101276.95
2023-06-11T20:32:10.415Z,101280.22
2023-06-11T20:34:39.770Z,101279.56
2023-06-11T20:37:07.988Z,101282.87
2023-06-11T20:39:35.971Z,101283.98
2023-06-11T20:42:03.944Z,101282.77
2023-06-11T20:44:32.025Z,101281.55
2023-06-11T20:46:59.952Z,101276.88
2023-06-11T20:49:28.161Z,101284.63
2023-06-11T20:51:56.126Z,101290.62
2023-06-11T20:54:24.026Z,101298.13
2023-06-11T20:56:52.014Z,101285.25
2023-06-11T20:59:20.146Z,101293.00
2023-06-11T21:01:48.542Z,101299.18
2023-06-11T21:04:16.930Z,101294.51
2023-06-11T21:06:44.963Z,101291.70
2023-06-11T21:09:13.085Z,101278.05
2023-06-11T21:11:41.010Z,101285.58
2023-06-11T21:14:14.243Z,101284.56
2023-06-11T21:16:42.761Z,101282.57
2023-06-11T21:19:11.010Z,101281.91
2023-06-11T21:21:39.272Z,101281.49
2023-06-11T21:24:07.759Z,101283.39
2023-06-11T21:26:35.793Z,101287.45
2023-06-11T21:29:05.434Z,101288.59
2023-06-11T21:31:33.711Z,101288.95
2023-06-11T21:34:02.466Z,101278.16
2023-06-11T21:36:30.455Z,101288.59
2023-06-11T21:38:58.557Z,101285.25
2023-06-11T21:41:26.682Z,101286.40
2023-06-11T21:43:54.590Z,101293.91
2023-06-11T21:46:22.579Z,101283.95
2023-06-11T21:48:50.794Z,101284.23
2023-06-11T21:51:19.031Z,101283.03
2023-06-11T21:53:47.209Z,101281.00
2023-06-11T21:56:15.138Z,101293.23
2023-06-11T21:58:43.002Z,101290.65
2023-06-11T22:01:10.967Z,101287.28
2023-06-11T22:03:38.987Z,101286.82
2023-06-11T22:06:07.276Z,101287.15
2023-06-11T22:08:37.151Z,101286.16
2023-06-11T22:11:05.420Z,101282.80
2023-06-11T22:13:35.198Z,101279.43
2023-06-11T22:16:03.142Z,101278.98
2023-06-11T22:18:31.457Z,101280.91
2023-06-11T22:21:00.270Z,101272.50
2023-06-11T22:23:45.209Z,101275.73
2023-06-11T22:26:16.478Z,101272.37
2023-06-11T22:28:44.431Z,101277.17
2023-06-11T22:31:12.304Z,101281.23
2023-06-11T22:33:40.246Z,101272.01
2023-06-11T22:36:08.418Z,101273.16
2023-06-11T22:38:36.404Z,101272.66
2023-06-11T22:41:04.296Z,101262.95
2023-06-11T22:43:33.713Z,101264.84
2023-06-11T22:46:01.639Z,101263.05
2023-06-11T22:48:29.570Z,101252.26
2023-06-11T22:50:59.173Z,101258.41
2023-06-11T22:53:30.184Z,101258.18
2023-06-11T22:56:03.668Z,101255.59
2023-06-11T22:58:31.840Z,101252.45
2023-06-11T23:00:59.859Z,101249.87
2023-06-11T23:03:27.932Z,101252.88
2023-06-11T23:05:55.887Z,101249.18
2023-06-11T23:08:24.057Z,101262.49
2023-06-11T23:10:52.044Z,101262.27
2023-06-11T23:13:19.997Z,101255.98
2023-06-11T23:15:48.227Z,101249.94
2023-06-11T23:18:19.427Z,101247.35
2023-06-11T23:20:48.946Z,101251.38
2023-06-11T23:23:17.887Z,101250.33
2023-06-11T23:25:51.901Z,101250.66
2023-06-11T23:28:20.728Z,101249.67
2023-06-11T23:30:48.693Z,101254.45
2023-06-11T23:33:16.666Z,101258.70
2023-06-11T23:35:44.715Z,101261.94
2023-06-11T23:38:12.686Z,101255.89
2023-06-11T23:40:40.625Z,101256.97
2023-06-11T23:43:08.569Z,101252.26
2023-06-11T23:45:36.490Z,101240.42
2023-06-11T23:48:04.485Z,101243.10
2023-06-11T23:50:32.445Z,101237.61
2023-06-11T23:53:00.773Z,101232.31
2023-06-11T23:55:28.973Z,101232.08
2023-06-11T23:58:22.104Z,101233.98
